KSNA/SNA METAR and TAF weather

Enter ICAO airport designator
Station Type Date Time Source
KSNA METAR 2019/04/25 09:53 UTC NOAA

KSNA 250953Z AUTO 15005KT 9SM OVC008 15/12 A2997 RMK AO2 SLP147 T01500122


Station Type Date Time Source
KSNA Decoded METAR 2019/04/25 09:53 UTC NOAA

SANTA ANA WAYNE ORANGE CTY, CA, United States (KSNA) 33-41N 117-52W 15M
Apr 25, 2019 - 05:53 AM EDT / 2019.04.25 0953 UTC
Wind: from the SSE (150 degrees) at 6 MPH (5 KT):0
Visibility: 9 mile(s):0
Sky conditions: overcast
Temperature: 59.0 F (15.0 C)
Dew Point: 54.0 F (12.2 C)
Relative Humidity: 83%
Pressure (altimeter): 29.97 in. Hg (1014 hPa)
ob: KSNA 250953Z AUTO 15005KT 9SM OVC008 15/12 A2997 RMK AO2 SLP147 T01500122
cycle: 10

Station Type Date Time Source
KSNA TAF 2019/04/25 09:04 UTC NOAA

TAF
AMD KSNA 250901Z 2509/2606 VRB04KT P6SM OVC007
FM251200 VRB03KT 5SM BR OVC006
FM251700 22009KT P6SM SCT010
FM251900 22009KT P6SM SCT010
FM260200 21005KT P6SM SCT010

Example: see airport list